QFA231 YMML-NZAA
Flight info
| Callsign | QFA231 |
|---|---|
| Flight time | N/A |
| Altitude | 35000 |
| Route | CORRS1/27 CORRS Y81 GEMAC N759 SASRO/N0462F370 N759 PEBLU |
| Aircraft | B738/M-SDE2E3FGHIRWXY/LB1 |
Departure
| Time | 2026-05-08 05:42 |
|---|---|
| Airport | Melbourne Airport (YMML) |
Arrival
| Time | N/A |
|---|---|
| Airport | Auckland International Airport (NZAA) |
| Time | Latitude | Longitude | Altitude | Speed | Heading |
|---|---|---|---|---|---|
| 2026-05-08 05:07 | -37.66769 | 144.84743 | 344 ft | 0 kts | 250° |
| 2026-05-08 05:32 | -37.66760 | 144.84771 | 353 ft | 4 kts | 247° |
| 2026-05-08 05:32 | -37.66753 | 144.84793 | 351 ft | 4 kts | 249° |
| 2026-05-08 05:33 | -37.66747 | 144.84823 | 339 ft | 4 kts | 286° |
| 2026-05-08 05:33 | -37.66758 | 144.84835 | 335 ft | 4 kts | 348° |
| 2026-05-08 05:33 | -37.66774 | 144.84839 | 353 ft | 1 kts | 349° |
| 2026-05-08 05:37 | -37.66767 | 144.84837 | 350 ft | 3 kts | 348° |
| 2026-05-08 05:37 | -37.66742 | 144.84829 | 339 ft | 5 kts | 343° |
| 2026-05-08 05:37 | -37.66698 | 144.84813 | 337 ft | 7 kts | 348° |
| 2026-05-08 05:38 | -37.66647 | 144.84799 | 334 ft | 8 kts | 347° |
| 2026-05-08 05:38 | -37.66592 | 144.84798 | 335 ft | 7 kts | 6° |
| 2026-05-08 05:38 | -37.66539 | 144.84797 | 333 ft | 8 kts | 349° |
| 2026-05-08 05:38 | -37.66481 | 144.84778 | 330 ft | 9 kts | 346° |
| 2026-05-08 05:39 | -37.66418 | 144.84775 | 328 ft | 9 kts | 2° |
| 2026-05-08 05:39 | -37.66379 | 144.84776 | 327 ft | 0 kts | 2° |
| 2026-05-08 05:40 | -37.66373 | 144.84776 | 328 ft | 2 kts | 2° |
| 2026-05-08 05:40 | -37.66350 | 144.84777 | 329 ft | 5 kts | 2° |
| 2026-05-08 05:40 | -37.66283 | 144.84779 | 328 ft | 14 kts | 359° |
| 2026-05-08 05:40 | -37.66228 | 144.84759 | 331 ft | 7 kts | 298° |
| 2026-05-08 05:41 | -37.66223 | 144.84731 | 333 ft | 0 kts | 275° |
| 2026-05-08 05:41 | -37.66217 | 144.84633 | 340 ft | 42 kts | 274° |
| 2026-05-08 05:41 | -37.66176 | 144.83934 | 383 ft | 115 kts | 274° |
| 2026-05-08 05:41 | -37.66102 | 144.82642 | 479 ft | 174 kts | 275° |
| 2026-05-08 05:42 | -37.65934 | 144.81136 | 1530 ft | 164 kts | 273° |
| 2026-05-08 05:42 | -37.65800 | 144.79748 | 2627 ft | 162 kts | 266° |
| 2026-05-08 05:42 | -37.65739 | 144.78253 | 3021 ft | 184 kts | 264° |
| 2026-05-08 05:42 | -37.65692 | 144.76554 | 3271 ft | 209 kts | 266° |
| 2026-05-08 05:43 | -37.65614 | 144.74636 | 3693 ft | 224 kts | 267° |
| 2026-05-08 05:43 | -37.65519 | 144.72599 | 4047 ft | 242 kts | 267° |
| 2026-05-08 05:43 | -37.65760 | 144.70495 | 4673 ft | 239 kts | 242° |
| 2026-05-08 05:43 | -37.66613 | 144.68739 | 4952 ft | 236 kts | 223° |
| 2026-05-08 05:44 | -37.67879 | 144.67475 | 4993 ft | 231 kts | 212° |
| 2026-05-08 05:44 | -37.69255 | 144.66389 | 5080 ft | 237 kts | 211° |
| 2026-05-08 05:44 | -37.70715 | 144.65352 | 5726 ft | 244 kts | 201° |
| 2026-05-08 05:44 | -37.72404 | 144.65085 | 6504 ft | 250 kts | 176° |
| 2026-05-08 05:45 | -37.74067 | 144.65785 | 7347 ft | 256 kts | 153° |
| 2026-05-08 05:45 | -37.75392 | 144.67309 | 8040 ft | 272 kts | 128° |
| 2026-05-08 05:45 | -37.76295 | 144.69459 | 8778 ft | 279 kts | 121° |
| 2026-05-08 05:45 | -37.77137 | 144.71677 | 9593 ft | 280 kts | 121° |
| 2026-05-08 05:46 | -37.77990 | 144.73913 | 10309 ft | 286 kts | 122° |
| 2026-05-08 05:46 | -37.78893 | 144.76254 | 10553 ft | 308 kts | 121° |
| 2026-05-08 05:46 | -37.79646 | 144.78928 | 10725 ft | 337 kts | 109° |
| 2026-05-08 05:46 | -37.80148 | 144.81928 | 10928 ft | 359 kts | 106° |
| 2026-05-08 05:47 | -37.80621 | 144.85082 | 11417 ft | 368 kts | 106° |
| 2026-05-08 05:47 | -37.81096 | 144.88298 | 11954 ft | 376 kts | 106° |
| 2026-05-08 05:47 | -37.81589 | 144.91573 | 12511 ft | 381 kts | 106° |
| 2026-05-08 05:47 | -37.82093 | 144.94846 | 13161 ft | 385 kts | 106° |
| 2026-05-08 05:48 | -37.82617 | 144.98187 | 13811 ft | 388 kts | 107° |
| 2026-05-08 05:48 | -37.83151 | 145.01553 | 14400 ft | 392 kts | 107° |
| 2026-05-08 05:48 | -37.83695 | 145.04961 | 14960 ft | 396 kts | 106° |
| 2026-05-08 05:48 | -37.84243 | 145.08393 | 15514 ft | 399 kts | 106° |
| 2026-05-08 05:49 | -37.84795 | 145.11845 | 16068 ft | 402 kts | 106° |
| 2026-05-08 05:49 | -37.85339 | 145.15254 | 16593 ft | 405 kts | 105° |
| 2026-05-08 05:49 | -37.85893 | 145.18727 | 17113 ft | 409 kts | 105° |
| 2026-05-08 05:49 | -37.86457 | 145.22276 | 17626 ft | 412 kts | 105° |
| 2026-05-08 05:50 | -37.87025 | 145.25853 | 18132 ft | 415 kts | 105° |
| 2026-05-08 05:50 | -37.87596 | 145.29462 | 18648 ft | 418 kts | 105° |
| 2026-05-08 05:50 | -37.88169 | 145.33087 | 19086 ft | 421 kts | 105° |
| 2026-05-08 05:50 | -37.88742 | 145.36721 | 19573 ft | 422 kts | 105° |
| 2026-05-08 05:51 | -37.89318 | 145.40384 | 20060 ft | 424 kts | 105° |
| 2026-05-08 05:51 | -37.89893 | 145.44047 | 20529 ft | 426 kts | 105° |
| 2026-05-08 05:51 | -37.90465 | 145.47699 | 20980 ft | 428 kts | 105° |
| 2026-05-08 05:51 | -37.91045 | 145.51408 | 21427 ft | 430 kts | 105° |
| 2026-05-08 05:52 | -37.91626 | 145.55131 | 21890 ft | 431 kts | 105° |
| 2026-05-08 05:52 | -37.92208 | 145.58869 | 22338 ft | 432 kts | 105° |
| 2026-05-08 05:52 | -37.92760 | 145.62575 | 22777 ft | 435 kts | 103° |
| 2026-05-08 05:52 | -37.93171 | 145.66395 | 23194 ft | 439 kts | 100° |
| 2026-05-08 05:53 | -37.93487 | 145.70254 | 23603 ft | 441 kts | 99° |
| 2026-05-08 05:53 | -37.93771 | 145.74144 | 23974 ft | 444 kts | 99° |
| 2026-05-08 05:53 | -37.94051 | 145.78058 | 24285 ft | 446 kts | 99° |
| 2026-05-08 05:53 | -37.94338 | 145.81979 | 24645 ft | 446 kts | 99° |
| 2026-05-08 05:54 | -37.94632 | 145.85845 | 24922 ft | 449 kts | 99° |
| 2026-05-08 05:54 | -37.94942 | 145.89803 | 25192 ft | 451 kts | 100° |
| 2026-05-08 05:54 | -37.95259 | 145.93771 | 25501 ft | 453 kts | 100° |
| 2026-05-08 05:54 | -37.95579 | 145.97763 | 25820 ft | 455 kts | 100° |
| 2026-05-08 05:55 | -37.95900 | 146.01760 | 26108 ft | 457 kts | 100° |
| 2026-05-08 05:55 | -37.96222 | 146.05780 | 26412 ft | 459 kts | 100° |
| 2026-05-08 05:55 | -37.96543 | 146.09818 | 26691 ft | 461 kts | 100° |
| 2026-05-08 05:55 | -37.96862 | 146.13832 | 26927 ft | 464 kts | 100° |
| 2026-05-08 05:56 | -37.97184 | 146.17919 | 27147 ft | 466 kts | 100° |
| 2026-05-08 05:56 | -37.97507 | 146.22023 | 27405 ft | 468 kts | 100° |
| 2026-05-08 05:56 | -37.97826 | 146.26132 | 27678 ft | 470 kts | 100° |
| 2026-05-08 05:56 | -37.98148 | 146.30269 | 27938 ft | 471 kts | 99° |
| 2026-05-08 05:57 | -37.98468 | 146.34418 | 28257 ft | 471 kts | 100° |
| 2026-05-08 05:57 | -37.98787 | 146.38555 | 28639 ft | 470 kts | 100° |
| 2026-05-08 05:57 | -37.99103 | 146.42686 | 29039 ft | 469 kts | 100° |
| 2026-05-08 05:57 | -37.99413 | 146.46744 | 29400 ft | 469 kts | 100° |
| 2026-05-08 05:58 | -37.99726 | 146.50868 | 29741 ft | 469 kts | 100° |
| 2026-05-08 05:58 | -38.00038 | 146.54998 | 30076 ft | 468 kts | 100° |
| 2026-05-08 05:58 | -38.00348 | 146.59115 | 30403 ft | 468 kts | 100° |
| 2026-05-08 05:58 | -38.00656 | 146.63220 | 30715 ft | 467 kts | 100° |
| 2026-05-08 05:59 | -38.00957 | 146.67265 | 31050 ft | 465 kts | 100° |
| 2026-05-08 05:59 | -38.01260 | 146.71347 | 31382 ft | 463 kts | 100° |
| 2026-05-08 05:59 | -38.01560 | 146.75418 | 31663 ft | 463 kts | 100° |
| 2026-05-08 05:59 | -38.01859 | 146.79483 | 31948 ft | 462 kts | 101° |
| 2026-05-08 06:00 | -38.02156 | 146.83547 | 32260 ft | 461 kts | 101° |
| 2026-05-08 06:00 | -38.02446 | 146.87532 | 32606 ft | 459 kts | 101° |
| 2026-05-08 06:00 | -38.02737 | 146.91559 | 32940 ft | 457 kts | 101° |
| 2026-05-08 06:00 | -38.03027 | 146.95574 | 33187 ft | 457 kts | 101° |
| 2026-05-08 06:01 | -38.03318 | 146.99607 | 33320 ft | 459 kts | 101° |
| 2026-05-08 06:01 | -38.03608 | 147.03645 | 33538 ft | 459 kts | 101° |
| 2026-05-08 06:01 | -38.03894 | 147.07673 | 33860 ft | 457 kts | 101° |
| 2026-05-08 06:01 | -38.04177 | 147.11688 | 34222 ft | 455 kts | 102° |
| 2026-05-08 06:02 | -38.04453 | 147.15628 | 34492 ft | 453 kts | 102° |
| 2026-05-08 06:02 | -38.04731 | 147.19609 | 34690 ft | 453 kts | 101° |
| 2026-05-08 06:02 | -38.05009 | 147.23592 | 34838 ft | 453 kts | 101° |
| 2026-05-08 06:02 | -38.05288 | 147.27589 | 35013 ft | 453 kts | 101° |
| 2026-05-08 06:03 | -38.05563 | 147.31575 | 35164 ft | 454 kts | 101° |
| 2026-05-08 06:03 | -38.06110 | 147.39542 | 35195 ft | 455 kts | 101° |
| 2026-05-08 06:04 | -38.06648 | 147.47509 | 35178 ft | 451 kts | 101° |
| 2026-05-08 06:04 | -38.07177 | 147.55421 | 35162 ft | 448 kts | 101° |
| 2026-05-08 06:05 | -38.07700 | 147.63285 | 35164 ft | 445 kts | 101° |
| 2026-05-08 06:05 | -38.08213 | 147.71067 | 35157 ft | 445 kts | 102° |
| 2026-05-08 06:06 | -38.08727 | 147.78927 | 35162 ft | 446 kts | 102° |
| 2026-05-08 06:06 | -38.09231 | 147.86738 | 35159 ft | 447 kts | 102° |
| 2026-05-08 06:07 | -38.09736 | 147.94646 | 35182 ft | 449 kts | 102° |
| 2026-05-08 06:07 | -38.10237 | 148.02581 | 35163 ft | 451 kts | 102° |
| 2026-05-08 06:08 | -38.10731 | 148.10498 | 35145 ft | 453 kts | 102° |
| 2026-05-08 06:08 | -38.11223 | 148.18476 | 35139 ft | 454 kts | 102° |
| 2026-05-08 06:09 | -38.11711 | 148.26473 | 35137 ft | 454 kts | 102° |
| 2026-05-08 06:09 | -38.12194 | 148.34492 | 35131 ft | 454 kts | 102° |
| 2026-05-08 06:10 | -38.12667 | 148.42431 | 35130 ft | 453 kts | 102° |
| 2026-05-08 06:10 | -38.13137 | 148.50416 | 35145 ft | 452 kts | 102° |
| 2026-05-08 06:11 | -38.13602 | 148.58386 | 35128 ft | 451 kts | 102° |
| 2026-05-08 06:11 | -38.14061 | 148.66341 | 35122 ft | 451 kts | 102° |
| 2026-05-08 06:12 | -38.14511 | 148.74240 | 35116 ft | 450 kts | 102° |
| 2026-05-08 06:12 | -38.14960 | 148.82203 | 35112 ft | 451 kts | 102° |
| 2026-05-08 06:13 | -38.15400 | 148.90119 | 35113 ft | 452 kts | 102° |
| 2026-05-08 06:13 | -38.15840 | 148.98120 | 35104 ft | 453 kts | 102° |
| 2026-05-08 06:14 | -38.16275 | 149.06142 | 35125 ft | 454 kts | 102° |
| 2026-05-08 06:14 | -38.16702 | 149.14120 | 35106 ft | 455 kts | 102° |
| 2026-05-08 06:15 | -38.17129 | 149.22192 | 35094 ft | 456 kts | 102° |
| 2026-05-08 06:15 | -38.17546 | 149.30200 | 35092 ft | 457 kts | 102° |
| 2026-05-08 06:16 | -38.17961 | 149.38277 | 35092 ft | 457 kts | 102° |
| 2026-05-08 06:16 | -38.18371 | 149.46346 | 35074 ft | 457 kts | 102° |
| 2026-05-08 06:17 | -38.18973 | 149.58412 | 35083 ft | 457 kts | 102° |
| 2026-05-08 06:17 | -38.19370 | 149.66509 | 35081 ft | 458 kts | 102° |
| 2026-05-08 06:18 | -38.19759 | 149.74550 | 35074 ft | 458 kts | 102° |
| 2026-05-08 06:18 | -38.20146 | 149.82653 | 35072 ft | 459 kts | 102° |
| 2026-05-08 06:19 | -38.20462 | 149.89386 | 35106 ft | 459 kts | 102° |
| 2026-05-08 06:19 | -38.20901 | 149.98834 | 35065 ft | 459 kts | 102° |
| 2026-05-08 06:20 | -38.21209 | 150.05593 | 35059 ft | 459 kts | 102° |
| 2026-05-08 06:20 | -38.21575 | 150.13712 | 35051 ft | 459 kts | 102° |
| 2026-05-08 06:21 | -38.21935 | 150.21835 | 35054 ft | 460 kts | 102° |
| 2026-05-08 06:21 | -38.22288 | 150.29910 | 35050 ft | 459 kts | 102° |
| 2026-05-08 06:22 | -38.22738 | 150.38002 | 35041 ft | 456 kts | 104° |
| 2026-05-08 06:22 | -38.23426 | 150.46021 | 35036 ft | 455 kts | 105° |
| 2026-05-08 06:23 | -38.24134 | 150.54051 | 35039 ft | 457 kts | 105° |
| 2026-05-08 06:23 | -38.24802 | 150.62052 | 35035 ft | 457 kts | 104° |
| 2026-05-08 06:24 | -38.25450 | 150.70120 | 35027 ft | 457 kts | 104° |
| 2026-05-08 06:24 | -38.26086 | 150.78187 | 35047 ft | 458 kts | 104° |
| 2026-05-08 06:25 | -38.26713 | 150.86215 | 35033 ft | 458 kts | 104° |
| 2026-05-08 06:25 | -38.27340 | 150.94305 | 35023 ft | 458 kts | 104° |
| 2026-05-08 06:26 | -38.27956 | 151.02327 | 35017 ft | 457 kts | 104° |
| 2026-05-08 06:26 | -38.28572 | 151.10406 | 35014 ft | 458 kts | 104° |
| 2026-05-08 06:27 | -38.29182 | 151.18486 | 35013 ft | 457 kts | 104° |
| 2026-05-08 06:27 | -38.29782 | 151.26508 | 35008 ft | 457 kts | 104° |
| 2026-05-08 06:28 | -38.30379 | 151.34553 | 35035 ft | 456 kts | 104° |
| 2026-05-08 06:28 | -38.30972 | 151.42629 | 35012 ft | 456 kts | 104° |
| 2026-05-08 06:29 | -38.31555 | 151.50633 | 34999 ft | 456 kts | 104° |
| 2026-05-08 06:29 | -38.32135 | 151.58688 | 34991 ft | 456 kts | 104° |
| 2026-05-08 06:30 | -38.32707 | 151.66699 | 35006 ft | 457 kts | 104° |
| 2026-05-08 06:30 | -38.33277 | 151.74764 | 34993 ft | 457 kts | 104° |
| 2026-05-08 06:31 | -38.33842 | 151.82844 | 34977 ft | 457 kts | 104° |
| 2026-05-08 06:31 | -38.34401 | 151.90918 | 34977 ft | 457 kts | 104° |
| 2026-05-08 06:32 | -38.34952 | 151.98944 | 34978 ft | 458 kts | 104° |
| 2026-05-08 06:32 | -38.35501 | 152.07030 | 34976 ft | 457 kts | 104° |
| 2026-05-08 06:33 | -38.36044 | 152.15114 | 34971 ft | 457 kts | 104° |
| 2026-05-08 06:33 | -38.36577 | 152.23134 | 34966 ft | 456 kts | 104° |
| 2026-05-08 06:34 | -38.37108 | 152.31214 | 34962 ft | 456 kts | 104° |
| 2026-05-08 06:34 | -38.37633 | 152.39270 | 34963 ft | 455 kts | 104° |
| 2026-05-08 06:35 | -38.38152 | 152.47324 | 34945 ft | 456 kts | 103° |
| 2026-05-08 06:35 | -38.38663 | 152.55334 | 34977 ft | 456 kts | 103° |
| 2026-05-08 06:36 | -38.39174 | 152.63427 | 34963 ft | 458 kts | 103° |
| 2026-05-08 06:36 | -38.39680 | 152.71547 | 34945 ft | 459 kts | 103° |
| 2026-05-08 06:37 | -38.40179 | 152.79638 | 34938 ft | 460 kts | 103° |
| 2026-05-08 06:37 | -38.40677 | 152.87801 | 34946 ft | 462 kts | 102° |
| 2026-05-08 06:38 | -38.41168 | 152.95950 | 34934 ft | 463 kts | 102° |
| 2026-05-08 06:38 | -38.41655 | 153.04150 | 34932 ft | 464 kts | 102° |
| 2026-05-08 06:39 | -38.42138 | 153.12381 | 34928 ft | 464 kts | 102° |
| 2026-05-08 06:39 | -38.42617 | 153.20610 | 34924 ft | 464 kts | 102° |
| 2026-05-08 06:40 | -38.43086 | 153.28783 | 34912 ft | 464 kts | 102° |
| 2026-05-08 06:40 | -38.43552 | 153.37012 | 34912 ft | 464 kts | 102° |
| 2026-05-08 06:41 | -38.44013 | 153.45239 | 34937 ft | 464 kts | 101° |
| 2026-05-08 06:41 | -38.44465 | 153.53413 | 34912 ft | 464 kts | 101° |
| 2026-05-08 06:42 | -38.44915 | 153.61651 | 34898 ft | 464 kts | 101° |
| 2026-05-08 06:42 | -38.45359 | 153.69895 | 34899 ft | 465 kts | 101° |
| 2026-05-08 06:43 | -38.45795 | 153.78088 | 34899 ft | 467 kts | 101° |
| 2026-05-08 06:43 | -38.46231 | 153.86383 | 34898 ft | 468 kts | 101° |
| 2026-05-08 06:44 | -38.46661 | 153.94688 | 34887 ft | 470 kts | 101° |
| 2026-05-08 06:44 | -38.47087 | 154.03034 | 34877 ft | 471 kts | 100° |
| 2026-05-08 06:45 | -38.47506 | 154.11343 | 34871 ft | 473 kts | 99° |
| 2026-05-08 06:45 | -38.47922 | 154.19748 | 34865 ft | 473 kts | 99° |
| 2026-05-08 06:46 | -38.48329 | 154.28085 | 34868 ft | 474 kts | 99° |
| 2026-05-08 06:46 | -38.48734 | 154.36493 | 34883 ft | 473 kts | 99° |
| 2026-05-08 06:47 | -38.49133 | 154.44900 | 34868 ft | 474 kts | 99° |
| 2026-05-08 06:47 | -38.49523 | 154.53249 | 34854 ft | 473 kts | 99° |
| 2026-05-08 06:48 | -38.49909 | 154.61647 | 34848 ft | 473 kts | 99° |
| 2026-05-08 06:48 | -38.50289 | 154.70041 | 34857 ft | 473 kts | 98° |
| 2026-05-08 06:49 | -38.50661 | 154.78369 | 34852 ft | 473 kts | 98° |
| 2026-05-08 06:49 | -38.51030 | 154.86775 | 34839 ft | 473 kts | 98° |
| 2026-05-08 06:50 | -38.51394 | 154.95188 | 34839 ft | 474 kts | 98° |
| 2026-05-08 06:50 | -38.51752 | 155.03622 | 34835 ft | 475 kts | 98° |
| 2026-05-08 06:51 | -38.52102 | 155.12020 | 34838 ft | 476 kts | 97° |
| 2026-05-08 06:51 | -38.52450 | 155.20494 | 34828 ft | 477 kts | 98° |
| 2026-05-08 06:52 | -38.52790 | 155.28939 | 34824 ft | 478 kts | 98° |
| 2026-05-08 06:52 | -38.53125 | 155.37434 | 34819 ft | 479 kts | 97° |
| 2026-05-08 06:53 | -38.53456 | 155.45944 | 34817 ft | 479 kts | 97° |
| 2026-05-08 06:53 | -38.53778 | 155.54413 | 34809 ft | 479 kts | 97° |
| 2026-05-08 06:54 | -38.54096 | 155.62926 | 34822 ft | 479 kts | 97° |
| 2026-05-08 06:54 | -38.54406 | 155.71385 | 34808 ft | 479 kts | 97° |
| 2026-05-08 06:55 | -38.54712 | 155.79896 | 34795 ft | 478 kts | 97° |
| 2026-05-08 06:55 | -38.55011 | 155.88403 | 34781 ft | 478 kts | 97° |
| 2026-05-08 06:56 | -38.55302 | 155.96835 | 34809 ft | 478 kts | 96° |
| 2026-05-08 06:56 | -38.55590 | 156.05353 | 34792 ft | 479 kts | 96° |
| 2026-05-08 06:57 | -38.55869 | 156.13815 | 34788 ft | 479 kts | 96° |
| 2026-05-08 06:57 | -38.56144 | 156.22337 | 34787 ft | 479 kts | 96° |
| 2026-05-08 06:58 | -38.56414 | 156.30872 | 34786 ft | 480 kts | 96° |
| 2026-05-08 06:58 | -38.56675 | 156.39354 | 34782 ft | 481 kts | 95° |
| 2026-05-08 06:59 | -38.56933 | 156.47912 | 34778 ft | 481 kts | 95° |
| 2026-05-08 06:59 | -38.57185 | 156.56485 | 34771 ft | 481 kts | 95° |
| 2026-05-08 07:00 | -38.57429 | 156.64995 | 34772 ft | 482 kts | 95° |
| 2026-05-08 07:00 | -38.57668 | 156.73572 | 34778 ft | 482 kts | 95° |
| 2026-05-08 07:01 | -38.57901 | 156.82149 | 34773 ft | 482 kts | 95° |
| 2026-05-08 07:01 | -38.58127 | 156.90672 | 34772 ft | 482 kts | 95° |
| 2026-05-08 07:02 | -38.58347 | 156.99229 | 34762 ft | 481 kts | 95° |
| 2026-05-08 07:02 | -38.58562 | 157.07796 | 34747 ft | 481 kts | 94° |
| 2026-05-08 07:03 | -38.58768 | 157.16303 | 34762 ft | 481 kts | 94° |
| 2026-05-08 07:03 | -38.58970 | 157.24866 | 34775 ft | 481 kts | 94° |
| 2026-05-08 07:04 | -38.59133 | 157.31992 | 34763 ft | 482 kts | 94° |
| 2026-05-08 07:04 | -38.59354 | 157.41965 | 34759 ft | 483 kts | 94° |
| 2026-05-08 07:05 | -38.59509 | 157.49121 | 34761 ft | 483 kts | 94° |
| 2026-05-08 07:05 | -38.59687 | 157.57717 | 34764 ft | 483 kts | 94° |
| 2026-05-08 07:06 | -38.59856 | 157.66329 | 34760 ft | 484 kts | 93° |
| 2026-05-08 07:06 | -38.60019 | 157.74901 | 34759 ft | 484 kts | 93° |
| 2026-05-08 07:07 | -38.60176 | 157.83528 | 34760 ft | 485 kts | 93° |
| 2026-05-08 07:07 | -38.60327 | 157.92106 | 34765 ft | 485 kts | 93° |
| 2026-05-08 07:08 | -38.60473 | 158.00746 | 34756 ft | 485 kts | 93° |
| 2026-05-08 07:08 | -38.60612 | 158.09380 | 34753 ft | 485 kts | 93° |
| 2026-05-08 07:09 | -38.60744 | 158.17947 | 34752 ft | 484 kts | 92° |
| 2026-05-08 07:09 | -38.60871 | 158.26573 | 34749 ft | 484 kts | 92° |
| 2026-05-08 07:10 | -38.60991 | 158.35195 | 34754 ft | 484 kts | 92° |
| 2026-05-08 07:10 | -38.61104 | 158.43807 | 34753 ft | 484 kts | 92° |
| 2026-05-08 07:11 | -38.61211 | 158.52380 | 34756 ft | 484 kts | 92° |
| 2026-05-08 07:11 | -38.61312 | 158.61004 | 34750 ft | 484 kts | 92° |
| 2026-05-08 07:12 | -38.61407 | 158.69565 | 34751 ft | 483 kts | 92° |
| 2026-05-08 07:12 | -38.61495 | 158.78174 | 34750 ft | 484 kts | 92° |
| 2026-05-08 07:13 | -38.61577 | 158.86736 | 34751 ft | 484 kts | 92° |
| 2026-05-08 07:13 | -38.61653 | 158.95375 | 34748 ft | 484 kts | 92° |
| 2026-05-08 07:14 | -38.61722 | 159.03950 | 34750 ft | 485 kts | 91° |
| 2026-05-08 07:14 | -38.61785 | 159.12585 | 34751 ft | 485 kts | 91° |
| 2026-05-08 07:15 | -38.61842 | 159.21232 | 34747 ft | 485 kts | 91° |
| 2026-05-08 07:15 | -38.61893 | 159.29828 | 34743 ft | 486 kts | 91° |
| 2026-05-08 07:16 | -38.61937 | 159.38496 | 34746 ft | 486 kts | 91° |
| 2026-05-08 07:16 | -38.61976 | 159.47171 | 34733 ft | 487 kts | 91° |
| 2026-05-08 07:17 | -38.62007 | 159.55799 | 34746 ft | 488 kts | 91° |
| 2026-05-08 07:17 | -38.62033 | 159.64527 | 34746 ft | 489 kts | 90° |
| 2026-05-08 07:18 | -38.62052 | 159.73193 | 34738 ft | 490 kts | 90° |
| 2026-05-08 07:18 | -38.62064 | 159.81939 | 34735 ft | 491 kts | 90° |
| 2026-05-08 07:19 | -38.62071 | 159.90695 | 34729 ft | 492 kts | 90° |
| 2026-05-08 07:19 | -38.62070 | 159.99418 | 34734 ft | 493 kts | 90° |
| 2026-05-08 07:20 | -38.62063 | 160.08193 | 34727 ft | 493 kts | 90° |
| 2026-05-08 07:20 | -38.62049 | 160.16988 | 34728 ft | 494 kts | 90° |
| 2026-05-08 07:21 | -38.62030 | 160.25728 | 34727 ft | 494 kts | 90° |
| 2026-05-08 07:21 | -38.62003 | 160.34534 | 34727 ft | 494 kts | 90° |
| 2026-05-08 07:22 | -38.61970 | 160.43291 | 34725 ft | 494 kts | 90° |
| 2026-05-08 07:22 | -38.61930 | 160.52087 | 34716 ft | 494 kts | 90° |
| 2026-05-08 07:23 | -38.61884 | 160.60880 | 34718 ft | 494 kts | 89° |
| 2026-05-08 07:23 | -38.61831 | 160.69610 | 34704 ft | 494 kts | 89° |
| 2026-05-08 07:24 | -38.61771 | 160.78409 | 34715 ft | 494 kts | 89° |
| 2026-05-08 07:24 | -38.61705 | 160.87239 | 34717 ft | 495 kts | 89° |
| 2026-05-08 07:25 | -38.61633 | 160.96016 | 34714 ft | 496 kts | 89° |
| 2026-05-08 07:26 | -38.61511 | 161.09241 | 34703 ft | 497 kts | 89° |
| 2026-05-08 07:26 | -38.61421 | 161.18111 | 34703 ft | 498 kts | 89° |
| 2026-05-08 07:27 | -38.61325 | 161.26928 | 34701 ft | 498 kts | 89° |
| 2026-05-08 07:27 | -38.61221 | 161.35810 | 34699 ft | 498 kts | 89° |
| 2026-05-08 07:28 | -38.61111 | 161.44692 | 34695 ft | 499 kts | 89° |
| 2026-05-08 07:28 | -38.60995 | 161.53517 | 34696 ft | 499 kts | 88° |
| 2026-05-08 07:29 | -38.60871 | 161.62417 | 34682 ft | 499 kts | 88° |
| 2026-05-08 07:29 | -38.60742 | 161.71246 | 34690 ft | 499 kts | 88° |
| 2026-05-08 07:30 | -38.60605 | 161.80132 | 34696 ft | 499 kts | 88° |
| 2026-05-08 07:30 | -38.60462 | 161.88970 | 34691 ft | 499 kts | 88° |
| 2026-05-08 07:31 | -38.60311 | 161.97865 | 34680 ft | 499 kts | 88° |
| 2026-05-08 07:31 | -38.60153 | 162.06776 | 34730 ft | 503 kts | 88° |
| 2026-05-08 07:31 | -38.60072 | 162.11196 | 34898 ft | 503 kts | 88° |
| 2026-05-08 07:32 | -38.59989 | 162.15658 | 35142 ft | 501 kts | 88° |
| 2026-05-08 07:32 | -38.59905 | 162.20119 | 35368 ft | 500 kts | 88° |
| 2026-05-08 07:32 | -38.59819 | 162.24560 | 35474 ft | 501 kts | 88° |
| 2026-05-08 07:33 | -38.59639 | 162.33538 | 35609 ft | 505 kts | 88° |
| 2026-05-08 07:33 | -38.59548 | 162.37979 | 35818 ft | 504 kts | 87° |
| 2026-05-08 07:33 | -38.59454 | 162.42468 | 36045 ft | 503 kts | 87° |
| 2026-05-08 07:33 | -38.59359 | 162.46944 | 36271 ft | 502 kts | 87° |
| 2026-05-08 07:34 | -38.59262 | 162.51405 | 36450 ft | 501 kts | 87° |
| 2026-05-08 07:34 | -38.59164 | 162.55873 | 36576 ft | 501 kts | 87° |
| 2026-05-08 07:34 | -38.59065 | 162.60275 | 36658 ft | 502 kts | 87° |
| 2026-05-08 07:35 | -38.58858 | 162.69250 | 36662 ft | 504 kts | 87° |
| 2026-05-08 07:35 | -38.58645 | 162.78220 | 36663 ft | 504 kts | 87° |
| 2026-05-08 07:36 | -38.58427 | 162.87113 | 36659 ft | 503 kts | 87° |
| 2026-05-08 07:36 | -38.58202 | 162.96060 | 36652 ft | 502 kts | 86° |
| 2026-05-08 07:37 | -38.57969 | 163.04988 | 36656 ft | 502 kts | 86° |
| 2026-05-08 07:37 | -38.57726 | 163.13911 | 36650 ft | 501 kts | 86° |
| 2026-05-08 07:38 | -38.57478 | 163.22775 | 36648 ft | 501 kts | 86° |
| 2026-05-08 07:38 | -38.57223 | 163.31690 | 36645 ft | 502 kts | 86° |
| 2026-05-08 07:39 | -38.56961 | 163.40629 | 36639 ft | 502 kts | 86° |
| 2026-05-08 07:39 | -38.56694 | 163.49503 | 36643 ft | 503 kts | 86° |
| 2026-05-08 07:40 | -38.56417 | 163.58458 | 36638 ft | 504 kts | 86° |
| 2026-05-08 07:40 | -38.56134 | 163.67428 | 36612 ft | 504 kts | 85° |
| 2026-05-08 07:41 | -38.55845 | 163.76341 | 36627 ft | 505 kts | 85° |
| 2026-05-08 07:41 | -38.55548 | 163.85309 | 36626 ft | 505 kts | 85° |
| 2026-05-08 07:42 | -38.55242 | 163.94304 | 36625 ft | 506 kts | 85° |
| 2026-05-08 07:42 | -38.54933 | 164.03225 | 36625 ft | 506 kts | 85° |
| 2026-05-08 07:43 | -38.54615 | 164.12216 | 36621 ft | 506 kts | 85° |
| 2026-05-08 07:43 | -38.54288 | 164.21216 | 36614 ft | 506 kts | 85° |
| 2026-05-08 07:44 | -38.53956 | 164.30197 | 36608 ft | 506 kts | 84° |
| 2026-05-08 07:44 | -38.53620 | 164.39121 | 36595 ft | 505 kts | 84° |
| 2026-05-08 07:45 | -38.53274 | 164.48085 | 36590 ft | 504 kts | 84° |
| 2026-05-08 07:45 | -38.52925 | 164.56988 | 36598 ft | 504 kts | 84° |
| 2026-05-08 07:46 | -38.52565 | 164.65961 | 36606 ft | 504 kts | 84° |
| 2026-05-08 07:46 | -38.52202 | 164.74871 | 36596 ft | 504 kts | 83° |
| 2026-05-08 07:47 | -38.51830 | 164.83819 | 36596 ft | 504 kts | 83° |
| 2026-05-08 07:47 | -38.51454 | 164.92704 | 36581 ft | 504 kts | 83° |
| 2026-05-08 07:48 | -38.51068 | 165.01658 | 36598 ft | 504 kts | 83° |
| 2026-05-08 07:48 | -38.50675 | 165.10621 | 36571 ft | 504 kts | 83° |
| 2026-05-08 07:49 | -38.50275 | 165.19571 | 36590 ft | 504 kts | 83° |
| 2026-05-08 07:49 | -38.49872 | 165.28462 | 36594 ft | 504 kts | 83° |
| 2026-05-08 07:50 | -38.49457 | 165.37432 | 36586 ft | 505 kts | 83° |
| 2026-05-08 07:50 | -38.49040 | 165.46337 | 36584 ft | 505 kts | 83° |
| 2026-05-08 07:51 | -38.48682 | 165.53839 | 36591 ft | 505 kts | 82° |
| 2026-05-08 07:51 | -38.48251 | 165.62760 | 36582 ft | 505 kts | 82° |
| 2026-05-08 07:52 | -38.47811 | 165.71723 | 36584 ft | 506 kts | 82° |
| 2026-05-08 07:52 | -38.47364 | 165.80695 | 36555 ft | 505 kts | 82° |
| 2026-05-08 07:53 | -38.46914 | 165.89594 | 36567 ft | 506 kts | 82° |
| 2026-05-08 07:53 | -38.46452 | 165.98563 | 36565 ft | 506 kts | 82° |
| 2026-05-08 07:54 | -38.45984 | 166.07535 | 36578 ft | 507 kts | 82° |
| 2026-05-08 07:54 | -38.45508 | 166.16520 | 36548 ft | 507 kts | 81° |
| 2026-05-08 07:55 | -38.45028 | 166.25452 | 36566 ft | 507 kts | 81° |
| 2026-05-08 07:55 | -38.44539 | 166.34448 | 36574 ft | 508 kts | 81° |
| 2026-05-08 07:56 | -38.44044 | 166.43399 | 36569 ft | 508 kts | 81° |
| 2026-05-08 07:56 | -38.43540 | 166.52415 | 36554 ft | 509 kts | 81° |
| 2026-05-08 07:57 | -38.43028 | 166.61427 | 36576 ft | 509 kts | 80° |
| 2026-05-08 07:57 | -38.42513 | 166.70379 | 36574 ft | 509 kts | 80° |
| 2026-05-08 07:58 | -38.41987 | 166.79396 | 36571 ft | 509 kts | 80° |
| 2026-05-08 07:58 | -38.41454 | 166.88411 | 36536 ft | 509 kts | 80° |
| 2026-05-08 07:59 | -38.40919 | 166.97355 | 36562 ft | 508 kts | 80° |
| 2026-05-08 07:59 | -38.40373 | 167.06354 | 36571 ft | 508 kts | 79° |
| 2026-05-08 08:00 | -38.39823 | 167.15297 | 36575 ft | 508 kts | 80° |
| 2026-05-08 08:00 | -38.39264 | 167.24304 | 36555 ft | 508 kts | 79° |
| 2026-05-08 08:01 | -38.38700 | 167.33248 | 36575 ft | 509 kts | 79° |
| 2026-05-08 08:01 | -38.38126 | 167.42249 | 36575 ft | 510 kts | 79° |
| 2026-05-08 08:02 | -38.37547 | 167.51221 | 36579 ft | 510 kts | 79° |
| 2026-05-08 08:02 | -38.36957 | 167.60255 | 36552 ft | 511 kts | 78° |
| 2026-05-08 08:03 | -38.36361 | 167.69283 | 36583 ft | 511 kts | 78° |
| 2026-05-08 08:03 | -38.35761 | 167.78268 | 36583 ft | 511 kts | 78° |
| 2026-05-08 08:04 | -38.35149 | 167.87322 | 36590 ft | 511 kts | 78° |
| 2026-05-08 08:04 | -38.34534 | 167.96310 | 36549 ft | 512 kts | 78° |
| 2026-05-08 08:05 | -38.33910 | 168.05340 | 36584 ft | 511 kts | 78° |
| 2026-05-08 08:05 | -38.33279 | 168.14364 | 36592 ft | 510 kts | 78° |
| 2026-05-08 08:06 | -38.32646 | 168.23319 | 36595 ft | 509 kts | 78° |
| 2026-05-08 08:06 | -38.32001 | 168.32335 | 36586 ft | 509 kts | 78° |
| 2026-05-08 08:07 | -38.31358 | 168.41247 | 36563 ft | 507 kts | 77° |
| 2026-05-08 08:07 | -38.30704 | 168.50197 | 36592 ft | 507 kts | 77° |
| 2026-05-08 08:08 | -38.30047 | 168.59083 | 36608 ft | 507 kts | 77° |
| 2026-05-08 08:08 | -38.29378 | 168.68044 | 36612 ft | 508 kts | 77° |
| 2026-05-08 08:09 | -38.28703 | 168.76996 | 36613 ft | 507 kts | 77° |
| 2026-05-08 08:09 | -38.28025 | 168.85905 | 36611 ft | 508 kts | 77° |
| 2026-05-08 08:10 | -38.27334 | 168.94885 | 36614 ft | 509 kts | 77° |
| 2026-05-08 08:10 | -38.26642 | 169.03801 | 36621 ft | 509 kts | 77° |
| 2026-05-08 08:11 | -38.25936 | 169.12794 | 36620 ft | 510 kts | 77° |
| 2026-05-08 08:11 | -38.25225 | 169.21777 | 36631 ft | 510 kts | 77° |
| 2026-05-08 08:12 | -38.24506 | 169.30756 | 36637 ft | 510 kts | 77° |
| 2026-05-08 08:12 | -38.23785 | 169.39692 | 36633 ft | 510 kts | 77° |
| 2026-05-08 08:13 | -38.23053 | 169.48669 | 36637 ft | 509 kts | 77° |
| 2026-05-08 08:13 | -38.22315 | 169.57632 | 36633 ft | 508 kts | 77° |
| 2026-05-08 08:14 | -38.21572 | 169.66576 | 36641 ft | 508 kts | 77° |
| 2026-05-08 08:14 | -38.20827 | 169.75449 | 36639 ft | 507 kts | 77° |
| 2026-05-08 08:15 | -38.20072 | 169.84368 | 36649 ft | 505 kts | 77° |
| 2026-05-08 08:15 | -38.19313 | 169.93263 | 36654 ft | 505 kts | 77° |
| 2026-05-08 08:16 | -38.18551 | 170.02091 | 36662 ft | 505 kts | 77° |
| 2026-05-08 08:16 | -38.17777 | 170.10989 | 36659 ft | 505 kts | 76° |
| 2026-05-08 08:17 | -38.17001 | 170.19828 | 36629 ft | 504 kts | 76° |
| 2026-05-08 08:17 | -38.16217 | 170.28696 | 36654 ft | 504 kts | 76° |
| 2026-05-08 08:18 | -38.15431 | 170.37502 | 36670 ft | 503 kts | 76° |
| 2026-05-08 08:18 | -38.14632 | 170.46363 | 36671 ft | 503 kts | 76° |
| 2026-05-08 08:19 | -38.13833 | 170.55163 | 36646 ft | 503 kts | 76° |
| 2026-05-08 08:19 | -38.13025 | 170.63998 | 36667 ft | 502 kts | 76° |
| 2026-05-08 08:20 | -38.12209 | 170.72836 | 36674 ft | 502 kts | 76° |
| 2026-05-08 08:20 | -38.11394 | 170.81593 | 36677 ft | 502 kts | 76° |
| 2026-05-08 08:21 | -38.09721 | 170.89964 | 36724 ft | 478 kts | 56° |
| 2026-05-08 08:21 | -38.06885 | 170.97603 | 36682 ft | 477 kts | 56° |
| 2026-05-08 08:22 | -38.04071 | 171.05260 | 36686 ft | 478 kts | 57° |
| 2026-05-08 08:22 | -38.01319 | 171.12884 | 36699 ft | 479 kts | 57° |
| 2026-05-08 08:23 | -37.98557 | 171.20583 | 36699 ft | 479 kts | 57° |
| 2026-05-08 08:23 | -37.95788 | 171.28288 | 36688 ft | 479 kts | 57° |
| 2026-05-08 08:24 | -37.93017 | 171.35977 | 36703 ft | 479 kts | 57° |
| 2026-05-08 08:24 | -37.90259 | 171.43602 | 36715 ft | 478 kts | 57° |
| 2026-05-08 08:25 | -37.87480 | 171.51265 | 36695 ft | 478 kts | 57° |
| 2026-05-08 08:25 | -37.84718 | 171.58863 | 36717 ft | 477 kts | 57° |
| 2026-05-08 08:26 | -37.81932 | 171.66505 | 36697 ft | 477 kts | 57° |
| 2026-05-08 08:26 | -37.79146 | 171.74131 | 36726 ft | 477 kts | 57° |
| 2026-05-08 08:27 | -37.76353 | 171.81755 | 36739 ft | 477 kts | 57° |
| 2026-05-08 08:27 | -37.73570 | 171.89332 | 36736 ft | 477 kts | 57° |
| 2026-05-08 08:28 | -37.70767 | 171.96946 | 36743 ft | 477 kts | 57° |
| 2026-05-08 08:28 | -37.69375 | 172.00717 | 36485 ft | 481 kts | 57° |